Huvudsida
METAR-TAF:

METAR-TAF

Flygplatser :

Ringkøbing-Skjern, Danmark

Staunings flygplats

latitud: 56-00N, longitud: 008-21E, höjd: 5 m

Aktuellt väderrapport

Denna rapport gjordes för 2 timmar och 2 minuter sedan, klockan 08:50 UTC
Vind 9 kt från sydväst
Temperatur 1°C
Fuktighet 100%
Tryck 986 hPa
Sikt 10 km eller mer
Få moln på en höjd av 1500 ft
Spridda moln på en höjd av 3000 ft
Brutna moln på en höjd av 15000 ft

METAR: EKVJ 170850Z 22009KT 9999 FEW015 SCT030 BKN150 01/01 Q0986 89592091

Tid: 11:52 (10:52 UTC)

Väderprognos

Denna rapport gjordes för 1 timme och 55 minuter sedan, klockan 08:57 UTC
Prognos gäller från 17 kl. 09 UTC till 17 kl. 16 UTC
Vind 8 kt från väst/sydväst
Sikt 10 km eller mer
Brutna moln på en höjd av 2000 ft
Temporärt
från 17 kl. 09 UTC till 17 kl. 16 UTC
Sikt: 4000 m
Brutna moln på en höjd av 1200 ft
regnskurar, snö

TAF: EKVJ 170857Z 1709/1716 24008KT 9999 BKN020 TEMPO 1709/1716 4000 SHRASN BKN012

Aktuella väderrapporter och prognoser från 4000 flygplatser (METAR- och TAF-rapporter).

De tillgängliga stationerna syns som gula och röda prickar på kartan.

För musen över prickarna för att se namnen på stationerna.

Klicka sedan för att få väderrapporter och prognoser.

För att ändra kartan: Klicka på de gröna knapparna med ett svart kors på för att zooma in; den gröna knappen med ett streck på för att zooma ut; eller på de gröna pilarna för angränsande kartor.


METAR-TAF: